createdAt,value
2018-02-07T00:00:37.997Z,33.8
2018-02-07T00:01:39.798Z,33.6
2018-02-07T00:02:41.553Z,33.7
2018-02-07T00:03:43.277Z,32.8
2018-02-07T00:04:44.984Z,32.2
2018-02-07T00:05:46.772Z,33.6
2018-02-07T00:06:48.488Z,33.8
2018-02-07T00:07:50.282Z,33.4
2018-02-07T00:08:52.087Z,35.1
2018-02-07T00:09:54.054Z,32.0
2018-02-07T00:10:56.875Z,33.9
2018-02-07T00:11:58.930Z,33.1
2018-02-07T00:13:00.703Z,33.8
2018-02-07T00:14:02.527Z,33.8
2018-02-07T00:15:04.457Z,35.7
2018-02-07T00:16:06.260Z,34.0
2018-02-07T00:17:07.988Z,32.1
2018-02-07T00:18:09.759Z,34.3
2018-02-07T00:19:13.604Z,34.5
2018-02-07T00:20:15.393Z,34.3
2018-02-07T00:21:17.291Z,34.0
2018-02-07T00:22:19.055Z,34.1
2018-02-07T00:23:20.816Z,34.7
2018-02-07T00:24:22.560Z,34.2
2018-02-07T00:25:24.336Z,34.5
2018-02-07T00:26:26.105Z,34.5
2018-02-07T00:27:27.977Z,32.6
2018-02-07T00:28:29.776Z,33.5
2018-02-07T00:29:31.554Z,33.8
2018-02-07T00:30:33.333Z,31.0
2018-02-07T00:31:35.119Z,35.0
2018-02-07T00:32:36.888Z,32.7
2018-02-07T00:33:38.653Z,32.8
2018-02-07T00:34:40.457Z,33.1
2018-02-07T00:35:42.226Z,33.8
2018-02-07T00:36:44.827Z,34.6
2018-02-07T00:37:46.623Z,33.9
2018-02-07T00:38:48.430Z,33.7
2018-02-07T00:39:50.442Z,32.3
2018-02-07T00:40:52.852Z,34.7
2018-02-07T00:41:54.594Z,34.4
2018-02-07T00:42:56.485Z,33.4
2018-02-07T00:43:58.340Z,35.2
2018-02-07T00:45:00.813Z,32.8
2018-02-07T00:46:03.484Z,32.6
2018-02-07T00:47:05.267Z,33.7
2018-02-07T00:48:07.870Z,33.3
2018-02-07T00:49:09.595Z,32.4
2018-02-07T00:50:11.356Z,34.9
2018-02-07T00:51:13.116Z,33.1
2018-02-07T00:52:15.842Z,34.0
2018-02-07T00:53:17.564Z,35.4
2018-02-07T00:54:20.318Z,32.1
2018-02-07T00:55:22.859Z,33.3
2018-02-07T00:56:24.613Z,34.8
2018-02-07T00:57:26.453Z,34.6
2018-02-07T00:58:28.303Z,35.3
2018-02-07T00:59:30.124Z,32.9
2018-02-07T01:00:31.919Z,34.2
2018-02-07T01:01:33.725Z,33.7
2018-02-07T01:02:36.354Z,32.5
2018-02-07T01:03:38.200Z,34.8
2018-02-07T01:04:40.077Z,35.2
2018-02-07T01:05:42.836Z,36.4
2018-02-07T01:06:45.376Z,33.3
2018-02-07T01:07:47.873Z,34.1
2018-02-07T01:08:49.713Z,34.2
2018-02-07T01:09:51.567Z,35.3
2018-02-07T01:10:53.309Z,33.7
2018-02-07T01:11:55.230Z,33.7
2018-02-07T01:12:57.051Z,35.6
2018-02-07T01:13:58.832Z,33.7
2018-02-07T01:15:00.601Z,35.1
2018-02-07T01:16:09.331Z,34.5
2018-02-07T01:17:11.126Z,33.0
2018-02-07T01:18:13.863Z,34.9
2018-02-07T01:19:15.623Z,33.4
2018-02-07T01:20:18.293Z,35.5
2018-02-07T01:21:20.125Z,34.8
2018-02-07T01:22:21.938Z,35.3
2018-02-07T01:23:23.753Z,33.6
2018-02-07T01:24:25.512Z,35.3
2018-02-07T01:25:27.330Z,34.3
2018-02-07T01:26:29.850Z,34.1
2018-02-07T01:27:31.652Z,35.5
2018-02-07T01:28:34.336Z,34.6
2018-02-07T01:29:36.131Z,35.2
2018-02-07T01:30:37.943Z,34.4
2018-02-07T01:31:39.737Z,35.6
2018-02-07T01:32:41.502Z,36.2
2018-02-07T01:33:43.256Z,34.7
2018-02-07T01:34:45.117Z,35.7
2018-02-07T01:35:46.935Z,34.7
2018-02-07T01:36:48.694Z,33.9
2018-02-07T01:37:53.314Z,34.5
2018-02-07T01:38:55.094Z,35.8
2018-02-07T01:39:56.903Z,34.2
2018-02-07T01:40:58.693Z,35.5
2018-02-07T01:42:01.361Z,34.4
2018-02-07T01:43:03.148Z,36.0
2018-02-07T01:44:05.876Z,35.8
2018-02-07T01:45:07.646Z,35.2
2018-02-07T01:46:09.385Z,34.0
2018-02-07T01:47:11.171Z,35.2
2018-02-07T01:48:13.845Z,33.6
2018-02-07T01:49:16.399Z,35.3
2018-02-07T01:50:20.925Z,36.7
2018-02-07T01:51:22.654Z,35.4
2018-02-07T01:52:24.404Z,36.4
2018-02-07T01:53:26.270Z,36.8
2018-02-07T01:54:28.098Z,35.7
2018-02-07T01:55:29.873Z,35.4
2018-02-07T01:56:32.344Z,35.6
2018-02-07T01:57:34.191Z,36.0
2018-02-07T01:58:36.089Z,35.1
2018-02-07T01:59:37.895Z,36.3
2018-02-07T02:00:39.715Z,36.8
2018-02-07T02:01:41.558Z,36.2
2018-02-07T02:02:43.305Z,34.4
2018-02-07T02:03:45.135Z,35.8
2018-02-07T02:04:47.819Z,35.5
2018-02-07T02:05:50.346Z,35.4
2018-02-07T02:06:52.812Z,35.5
2018-02-07T02:07:54.568Z,36.8
2018-02-07T02:08:57.293Z,36.9
2018-02-07T02:09:59.159Z,36.5
2018-02-07T02:11:01.882Z,36.5
2018-02-07T02:12:03.671Z,36.0
2018-02-07T02:13:05.461Z,36.1
2018-02-07T02:14:09.859Z,37.0
2018-02-07T02:15:11.704Z,37.2
2018-02-07T02:16:14.345Z,36.7
2018-02-07T02:17:18.866Z,36.9
2018-02-07T02:18:20.614Z,36.3
2018-02-07T02:19:22.478Z,36.2
2018-02-07T02:20:24.220Z,35.5
2018-02-07T02:21:26.876Z,36.4
2018-02-07T02:22:29.420Z,36.8
2018-02-07T02:23:31.206Z,36.2
2018-02-07T02:24:35.922Z,36.4
2018-02-07T02:25:37.698Z,36.6
2018-02-07T02:26:42.297Z,36.4
2018-02-07T02:27:44.154Z,36.3
2018-02-07T02:28:45.920Z,35.5
2018-02-07T02:29:47.741Z,36.6
2018-02-07T02:30:49.473Z,38.7
2018-02-07T02:31:51.338Z,36.7
2018-02-07T02:32:53.151Z,35.6
2018-02-07T02:33:54.943Z,38.0
2018-02-07T02:34:56.764Z,35.4
2018-02-07T02:35:58.555Z,35.1
2018-02-07T02:37:00.354Z,38.3
2018-02-07T02:38:02.881Z,36.7
2018-02-07T02:39:05.353Z,36.7
2018-02-07T02:40:07.126Z,35.9
2018-02-07T02:41:08.962Z,35.9
2018-02-07T02:42:10.807Z,37.0
2018-02-07T02:43:13.333Z,35.7
2018-02-07T02:44:15.146Z,35.2
2018-02-07T02:45:16.921Z,38.4
2018-02-07T02:46:19.351Z,36.5
2018-02-07T02:47:21.918Z,36.5
2018-02-07T02:48:23.691Z,37.7
2018-02-07T02:49:25.544Z,37.8
2018-02-07T02:50:27.294Z,36.2
2018-02-07T02:51:29.077Z,37.5
2018-02-07T02:52:30.870Z,37.3
2018-02-07T02:53:32.706Z,34.9
2018-02-07T02:54:34.563Z,37.2
2018-02-07T02:55:36.400Z,36.5
2018-02-07T02:56:38.183Z,37.0
2018-02-07T02:57:40.090Z,36.4
2018-02-07T02:58:41.880Z,38.0
2018-02-07T02:59:43.700Z,36.2
2018-02-07T03:00:45.460Z,36.6
2018-02-07T03:02:01.896Z,37.5
2018-02-07T03:03:03.671Z,38.1
2018-02-07T03:04:08.371Z,37.6
2018-02-07T03:05:12.922Z,37.4
2018-02-07T03:06:14.768Z,37.8
2018-02-07T03:07:16.607Z,36.8
2018-02-07T03:08:18.413Z,37.3
2018-02-07T03:09:20.243Z,37.4
2018-02-07T03:10:21.973Z,37.7
2018-02-07T03:11:23.868Z,38.5
2018-02-07T03:12:26.310Z,37.5
2018-02-07T03:13:28.110Z,39.1
2018-02-07T03:14:29.943Z,37.9
2018-02-07T03:15:31.741Z,37.6
2018-02-07T03:16:34.388Z,39.7
2018-02-07T03:17:36.251Z,39.9
2018-02-07T03:18:38.060Z,38.7
2018-02-07T03:19:39.831Z,38.0
2018-02-07T03:20:41.591Z,37.9
2018-02-07T03:21:44.340Z,38.6
2018-02-07T03:22:46.170Z,38.5
2018-02-07T03:23:47.982Z,38.3
2018-02-07T03:24:49.955Z,37.9
2018-02-07T03:25:51.778Z,37.0
2018-02-07T03:26:53.582Z,39.3
2018-02-07T03:27:55.369Z,38.8
2018-02-07T03:28:57.169Z,38.2
2018-02-07T03:29:58.963Z,36.5
2018-02-07T03:31:00.811Z,36.6
2018-02-07T03:32:02.630Z,38.7
2018-02-07T03:33:04.415Z,37.3
2018-02-07T03:34:06.230Z,35.8
2018-02-07T03:35:07.995Z,36.9
2018-02-07T03:36:09.892Z,38.3
2018-02-07T03:37:11.643Z,38.6
2018-02-07T03:38:13.486Z,37.3
2018-02-07T03:39:15.889Z,38.4
2018-02-07T03:40:17.669Z,38.2
2018-02-07T03:41:19.449Z,37.9
2018-02-07T03:42:21.221Z,39.1
2018-02-07T03:43:23.047Z,36.2
2018-02-07T03:44:24.963Z,38.4
2018-02-07T03:45:27.352Z,36.6
2018-02-07T03:46:29.157Z,37.3
2018-02-07T03:47:31.931Z,38.3
2018-02-07T03:48:33.746Z,39.2
2018-02-07T03:49:35.490Z,39.1
2018-02-07T03:50:37.904Z,38.9
2018-02-07T03:51:39.770Z,38.2
2018-02-07T03:52:41.574Z,37.7
2018-02-07T03:53:43.385Z,39.8
2018-02-07T03:54:45.210Z,40.1
2018-02-07T03:55:46.947Z,38.0
2018-02-07T03:56:49.432Z,38.2
2018-02-07T03:57:51.223Z,39.0
2018-02-07T03:58:53.110Z,37.8
2018-02-07T03:59:54.984Z,38.0
2018-02-07T04:00:59.422Z,39.2
2018-02-07T04:02:01.274Z,38.7
2018-02-07T04:03:03.906Z,38.8
2018-02-07T04:04:06.368Z,37.4
2018-02-07T04:05:08.875Z,38.1
2018-02-07T04:06:10.713Z,38.5
2018-02-07T04:07:12.516Z,38.4
2018-02-07T04:08:14.900Z,38.9
2018-02-07T04:09:16.715Z,38.2
2018-02-07T04:10:19.359Z,39.2
2018-02-07T04:11:21.148Z,38.9
2018-02-07T04:12:23.049Z,39.3
2018-02-07T04:13:24.836Z,38.1
2018-02-07T04:14:27.352Z,39.0
2018-02-07T04:15:29.114Z,38.2
2018-02-07T04:16:30.893Z,38.8
2018-02-07T04:17:33.327Z,39.6
2018-02-07T04:18:35.046Z,39.5
2018-02-07T04:19:36.830Z,37.8
2018-02-07T04:20:39.363Z,38.5
2018-02-07T04:21:41.222Z,38.1
2018-02-07T04:22:43.046Z,39.3
2018-02-07T04:23:44.842Z,38.6
2018-02-07T04:24:46.595Z,39.2
2018-02-07T04:25:48.305Z,39.6
2018-02-07T04:26:50.050Z,37.9
2018-02-07T04:27:51.845Z,39.4
2018-02-07T04:28:54.348Z,38.9
2018-02-07T04:29:56.145Z,38.7
2018-02-07T04:30:57.930Z,39.4
2018-02-07T04:32:00.398Z,40.1
2018-02-07T04:33:04.788Z,38.6
2018-02-07T04:34:06.553Z,38.7
2018-02-07T04:35:08.292Z,40.9
2018-02-07T04:36:10.855Z,37.9
2018-02-07T04:37:13.280Z,39.9
2018-02-07T04:38:17.828Z,40.0
2018-02-07T04:39:22.323Z,40.3
2018-02-07T04:40:24.107Z,38.6
2018-02-07T04:41:25.899Z,39.8
2018-02-07T04:42:30.307Z,39.4
2018-02-07T04:43:32.080Z,40.2
2018-02-07T04:44:36.789Z,38.5
2018-02-07T04:45:39.373Z,39.0
2018-02-07T04:46:41.160Z,39.0
2018-02-07T04:47:43.917Z,39.7
2018-02-07T04:48:45.812Z,42.1
2018-02-07T04:49:47.652Z,41.1
2018-02-07T04:50:49.377Z,40.4
2018-02-07T04:51:51.201Z,40.7
2018-02-07T04:52:53.018Z,39.0
2018-02-07T04:53:54.806Z,40.4
2018-02-07T04:54:56.560Z,41.9
2018-02-07T04:55:58.365Z,40.7
2018-02-07T04:57:00.113Z,41.1
2018-02-07T04:58:01.899Z,40.1
2018-02-07T04:59:03.731Z,39.5
2018-02-07T05:00:05.494Z,41.9
2018-02-07T05:01:07.226Z,41.4
2018-02-07T05:02:09.903Z,42.2
2018-02-07T05:03:11.730Z,42.0
2018-02-07T05:04:13.552Z,40.9
2018-02-07T05:05:15.918Z,43.4
2018-02-07T05:06:17.705Z,41.1
2018-02-07T05:07:19.522Z,42.7
2018-02-07T05:08:21.362Z,41.6
2018-02-07T05:09:23.188Z,42.2
2018-02-07T05:10:24.919Z,41.3
2018-02-07T05:11:26.782Z,42.7
2018-02-07T05:12:28.474Z,43.9
2018-02-07T05:13:30.180Z,44.4
2018-02-07T05:14:31.979Z,42.8
2018-02-07T05:15:33.777Z,42.6
2018-02-07T05:16:35.491Z,45.3
2018-02-07T05:17:37.828Z,44.9
2018-02-07T05:18:39.630Z,44.8
2018-02-07T05:19:41.387Z,44.5
2018-02-07T05:20:43.196Z,44.3
2018-02-07T05:21:44.970Z,44.6
2018-02-07T05:22:46.710Z,42.8
2018-02-07T05:23:48.478Z,43.0
2018-02-07T05:24:50.238Z,45.1
2018-02-07T05:25:52.036Z,42.3
2018-02-07T05:26:53.785Z,45.3
2018-02-07T05:27:55.570Z,44.6
2018-02-07T05:28:57.333Z,47.2
2018-02-07T05:29:59.127Z,46.4
2018-02-07T05:31:00.894Z,45.4
2018-02-07T05:32:02.706Z,43.6
2018-02-07T05:33:04.494Z,46.0
2018-02-07T05:34:06.289Z,45.2
2018-02-07T05:35:08.860Z,45.2
2018-02-07T05:36:11.281Z,46.5
2018-02-07T05:37:13.025Z,44.5
2018-02-07T05:38:14.768Z,45.6
2018-02-07T05:39:16.475Z,44.9
2018-02-07T05:40:20.907Z,44.6
2018-02-07T05:41:22.698Z,45.6
2018-02-07T05:42:24.488Z,45.8
2018-02-07T05:43:26.242Z,46.2
2018-02-07T05:44:30.952Z,46.6
2018-02-07T05:45:32.729Z,46.4
2018-02-07T05:46:34.485Z,47.8
2018-02-07T05:47:36.858Z,45.8
2018-02-07T05:48:38.600Z,43.9
2018-02-07T05:49:41.319Z,44.6
2018-02-07T05:50:43.096Z,45.7
2018-02-07T05:51:45.818Z,45.7
2018-02-07T05:52:47.620Z,46.0
2018-02-07T05:53:50.408Z,45.6
2018-02-07T05:54:52.151Z,46.4
2018-02-07T05:55:53.961Z,46.2
2018-02-07T05:56:55.720Z,46.3
2018-02-07T05:57:57.462Z,45.9
2018-02-07T05:58:59.224Z,45.3
2018-02-07T06:00:00.993Z,46.1
2018-02-07T06:01:02.812Z,48.2
2018-02-07T06:02:04.530Z,44.9
2018-02-07T06:03:06.275Z,44.8
2018-02-07T06:04:08.078Z,46.2
2018-02-07T06:05:09.856Z,45.4
2018-02-07T06:06:11.739Z,47.2
2018-02-07T06:07:13.501Z,46.5
2018-02-07T06:08:15.839Z,46.3
2018-02-07T06:09:18.446Z,45.3
2018-02-07T06:10:20.242Z,46.6
2018-02-07T06:11:22.027Z,46.6
2018-02-07T06:12:23.787Z,45.9
2018-02-07T06:13:25.677Z,45.7
2018-02-07T06:14:27.735Z,46.1
2018-02-07T06:15:29.481Z,45.6
2018-02-07T06:16:31.584Z,47.6
2018-02-07T06:17:33.357Z,48.0
2018-02-07T06:18:35.149Z,48.6
2018-02-07T06:19:37.040Z,46.9
2018-02-07T06:20:38.784Z,46.8
2018-02-07T06:21:40.637Z,47.3
2018-02-07T06:22:42.715Z,46.3
2018-02-07T06:23:47.355Z,45.6
2018-02-07T06:24:49.142Z,46.6
2018-02-07T06:25:50.961Z,46.3
2018-02-07T06:26:53.363Z,47.8
2018-02-07T06:27:55.114Z,46.9
2018-02-07T06:28:56.913Z,47.9
2018-02-07T06:29:58.702Z,47.1
2018-02-07T06:31:01.368Z,46.5
2018-02-07T06:32:03.198Z,47.0
2018-02-07T06:33:04.938Z,46.8
2018-02-07T06:34:06.754Z,44.8
2018-02-07T06:35:15.343Z,46.7
2018-02-07T06:36:17.842Z,46.4
2018-02-07T06:37:19.805Z,45.4
2018-02-07T06:38:21.632Z,46.1
2018-02-07T06:39:23.418Z,44.5
2018-02-07T06:40:25.276Z,44.6
2018-02-07T06:41:27.855Z,47.2
2018-02-07T06:42:29.680Z,46.2
2018-02-07T06:43:32.368Z,45.6
2018-02-07T06:44:34.227Z,46.9
2018-02-07T06:45:36.907Z,47.8
2018-02-07T06:46:38.701Z,48.0
2018-02-07T06:47:40.498Z,48.4
2018-02-07T06:48:42.269Z,48.4
2018-02-07T06:49:44.922Z,47.7
2018-02-07T06:50:46.673Z,47.0
2018-02-07T06:51:48.413Z,46.7
2018-02-07T06:52:50.181Z,46.5
2018-02-07T06:53:51.971Z,48.3
2018-02-07T06:54:53.806Z,47.0
2018-02-07T06:55:55.640Z,45.4
2018-02-07T06:56:57.381Z,47.5
2018-02-07T06:57:59.122Z,49.7
2018-02-07T06:59:00.906Z,49.4
2018-02-07T07:00:02.714Z,48.2
2018-02-07T07:01:04.519Z,47.3
2018-02-07T07:02:06.320Z,46.8
2018-02-07T07:03:08.060Z,46.4
2018-02-07T07:04:09.938Z,47.1
2018-02-07T07:05:11.722Z,46.7
2018-02-07T07:06:13.495Z,45.9
2018-02-07T07:07:15.309Z,45.8
2018-02-07T07:08:19.974Z,47.4
2018-02-07T07:09:21.786Z,42.9
2018-02-07T07:10:23.649Z,47.2
2018-02-07T07:11:25.412Z,48.6
2018-02-07T07:12:27.219Z,46.9
2018-02-07T07:13:29.024Z,46.1
2018-02-07T07:14:30.850Z,46.4
2018-02-07T07:15:32.669Z,47.6
2018-02-07T07:16:34.461Z,45.8
2018-02-07T07:17:36.893Z,48.4
2018-02-07T07:18:38.691Z,47.0
2018-02-07T07:19:40.535Z,47.2
2018-02-07T07:20:42.368Z,48.8
2018-02-07T07:21:44.149Z,47.1
2018-02-07T07:22:46.856Z,47.2
2018-02-07T07:23:49.383Z,47.9
2018-02-07T07:24:51.120Z,47.6
2018-02-07T07:25:52.942Z,47.9
2018-02-07T07:26:54.690Z,48.2
2018-02-07T07:27:56.442Z,47.8
2018-02-07T07:29:01.002Z,47.7
2018-02-07T07:30:02.789Z,48.4
2018-02-07T07:31:04.644Z,48.4
2018-02-07T07:32:06.469Z,46.3
2018-02-07T07:33:08.931Z,47.6
2018-02-07T07:34:10.706Z,46.3
2018-02-07T07:35:13.395Z,45.4
2018-02-07T07:36:15.178Z,47.1
2018-02-07T07:37:16.961Z,44.5
2018-02-07T07:38:18.711Z,45.1
2018-02-07T07:39:20.507Z,46.8
2018-02-07T07:40:22.341Z,48.0
2018-02-07T07:41:24.917Z,47.0
2018-02-07T07:42:26.776Z,47.9
2018-02-07T07:43:28.627Z,49.1
2018-02-07T07:44:30.415Z,48.0
2018-02-07T07:45:32.319Z,49.3
2018-02-07T07:46:34.937Z,49.2
2018-02-07T07:47:36.727Z,47.6
2018-02-07T07:48:38.575Z,48.9
2018-02-07T07:49:40.376Z,48.4
2018-02-07T07:50:42.166Z,49.3
2018-02-07T07:51:45.146Z,50.0
2018-02-07T07:52:47.969Z,49.4
2018-02-07T07:53:49.791Z,50.0
2018-02-07T07:54:51.546Z,48.4
2018-02-07T07:55:53.303Z,49.6
2018-02-07T07:56:55.088Z,49.6
2018-02-07T07:57:56.950Z,50.5
2018-02-07T07:58:58.756Z,49.7
2018-02-07T08:00:00.556Z,50.0
2018-02-07T08:01:02.513Z,50.5
2018-02-07T08:02:06.881Z,51.6
2018-02-07T08:03:09.522Z,50.3
2018-02-07T08:04:11.303Z,51.6
2018-02-07T08:05:13.125Z,50.5
2018-02-07T08:06:15.102Z,49.4
2018-02-07T08:07:18.119Z,50.5
2018-02-07T08:08:20.068Z,51.0
2018-02-07T08:09:22.063Z,51.6
2018-02-07T08:10:30.440Z,51.4
2018-02-07T08:11:32.948Z,50.9
2018-02-07T08:12:34.689Z,49.0
2018-02-07T08:13:37.550Z,50.7
2018-02-07T08:14:39.398Z,50.4
2018-02-07T08:15:41.218Z,51.6
2018-02-07T08:16:44.010Z,52.5
2018-02-07T08:17:49.065Z,53.2
2018-02-07T08:18:50.994Z,51.1
2018-02-07T08:19:53.370Z,52.0
2018-02-07T08:20:55.181Z,52.4
2018-02-07T08:21:59.881Z,52.5
2018-02-07T08:23:01.621Z,50.1
2018-02-07T08:24:03.446Z,52.0
2018-02-07T08:25:05.292Z,52.5
2018-02-07T08:26:07.082Z,52.8
2018-02-07T08:27:08.938Z,52.1
2018-02-07T08:28:11.405Z,51.0
2018-02-07T08:29:13.171Z,52.9
2018-02-07T08:30:14.975Z,49.8
2018-02-07T08:31:17.472Z,52.6
2018-02-07T08:32:19.360Z,53.6
2018-02-07T08:33:21.135Z,51.6
2018-02-07T08:34:29.893Z,52.4
2018-02-07T08:35:31.663Z,53.2
2018-02-07T08:36:34.361Z,52.1
2018-02-07T08:37:36.204Z,52.6
2018-02-07T08:38:37.896Z,51.7
2018-02-07T08:39:39.684Z,53.0
2018-02-07T08:40:41.400Z,53.4
2018-02-07T08:41:43.164Z,53.1
2018-02-07T08:42:44.900Z,54.4
2018-02-07T08:43:46.667Z,53.9
2018-02-07T08:44:48.453Z,54.0
2018-02-07T08:45:50.245Z,53.6
2018-02-07T08:46:52.070Z,51.4
2018-02-07T08:47:53.826Z,54.3
2018-02-07T08:48:55.661Z,53.3
2018-02-07T08:49:57.405Z,53.4
2018-02-07T08:50:59.238Z,53.9
2018-02-07T08:52:01.024Z,56.4
2018-02-07T08:53:02.788Z,52.5
2018-02-07T08:54:04.544Z,55.6
2018-02-07T08:55:06.318Z,53.4
2018-02-07T08:56:08.082Z,54.4
2018-02-07T08:57:09.878Z,51.8
2018-02-07T08:58:11.640Z,52.8
2018-02-07T08:59:13.376Z,50.9
2018-02-07T09:00:15.891Z,51.8
2018-02-07T09:01:17.691Z,52.6
2018-02-07T09:02:22.361Z,53.8
2018-02-07T09:03:24.181Z,53.4
2018-02-07T09:04:26.001Z,52.6
2018-02-07T09:05:27.804Z,51.8
2018-02-07T09:06:32.442Z,53.3
2018-02-07T09:07:34.268Z,52.9
2018-02-07T09:08:35.999Z,52.2
2018-02-07T09:09:37.785Z,52.1
2018-02-07T09:10:40.375Z,54.4
2018-02-07T09:11:42.092Z,52.3
2018-02-07T09:12:43.870Z,52.9
2018-02-07T09:13:46.386Z,52.3
2018-02-07T09:14:48.219Z,53.3
2018-02-07T09:15:50.012Z,53.3
2018-02-07T09:16:52.453Z,54.1
2018-02-07T09:17:54.153Z,53.5
2018-02-07T09:18:55.894Z,53.4
2018-02-07T09:19:58.389Z,53.0
2018-02-07T09:21:00.202Z,54.9
2018-02-07T09:22:01.990Z,54.5
2018-02-07T09:23:06.375Z,51.9
2018-02-07T09:24:08.108Z,55.1
2018-02-07T09:25:09.912Z,54.3
2018-02-07T09:26:11.682Z,53.4
2018-02-07T09:27:13.484Z,54.8
2018-02-07T09:28:15.258Z,54.0
2018-02-07T09:29:17.047Z,55.5
2018-02-07T09:30:18.894Z,52.4
2018-02-07T09:31:20.648Z,54.0
2018-02-07T09:32:22.385Z,54.1
2018-02-07T09:33:24.866Z,53.4
2018-02-07T09:34:26.649Z,54.4
2018-02-07T09:35:28.425Z,55.7
2018-02-07T09:36:30.187Z,55.8
2018-02-07T09:37:32.064Z,55.3
2018-02-07T09:38:33.792Z,56.4
2018-02-07T09:39:35.590Z,52.7
2018-02-07T09:40:37.355Z,54.4
2018-02-07T09:41:39.188Z,55.1
2018-02-07T09:42:41.017Z,55.2
2018-02-07T09:43:42.812Z,55.5
2018-02-07T09:44:44.605Z,56.5
2018-02-07T09:45:46.440Z,54.4
2018-02-07T09:46:48.284Z,57.8
2018-02-07T09:47:50.181Z,56.2
2018-02-07T09:48:51.933Z,56.0
2018-02-07T09:49:53.767Z,56.3
2018-02-07T09:50:58.403Z,57.4
2018-02-07T09:52:00.193Z,58.0
2018-02-07T09:53:02.024Z,54.5
2018-02-07T09:54:03.748Z,57.2
2018-02-07T09:55:06.344Z,59.6
2018-02-07T09:56:08.146Z,57.8
2018-02-07T09:57:10.012Z,57.7
2018-02-07T09:58:12.344Z,56.9
2018-02-07T09:59:14.853Z,55.1
2018-02-07T10:00:16.682Z,58.5
2018-02-07T10:01:18.596Z,57.4
2018-02-07T10:02:20.423Z,58.8
2018-02-07T10:03:22.874Z,58.1
2018-02-07T10:04:24.724Z,60.1
2018-02-07T10:05:26.533Z,57.0
2018-02-07T10:06:28.332Z,58.6
2018-02-07T10:07:30.134Z,60.5
2018-02-07T10:08:31.933Z,59.4
2018-02-07T10:09:33.705Z,58.2
2018-02-07T10:10:35.515Z,58.3
2018-02-07T10:11:37.410Z,58.7
2018-02-07T10:12:40.005Z,60.9
2018-02-07T10:13:42.403Z,60.2
2018-02-07T10:14:44.141Z,58.9
2018-02-07T10:15:45.911Z,59.1
2018-02-07T10:16:47.709Z,58.7
2018-02-07T10:17:49.624Z,57.9
2018-02-07T10:18:51.439Z,59.8
2018-02-07T10:19:53.235Z,62.2
2018-02-07T10:20:55.017Z,58.2
2018-02-07T10:21:56.837Z,59.6
2018-02-07T10:22:58.707Z,59.0
2018-02-07T10:24:02.824Z,58.9
2018-02-07T10:25:06.353Z,60.1
2018-02-07T10:26:08.426Z,60.1
2018-02-07T10:27:10.327Z,59.6
2018-02-07T10:28:12.213Z,60.7
2018-02-07T10:29:21.075Z,58.0
2018-02-07T10:30:23.006Z,59.3
2018-02-07T10:31:25.937Z,59.1
2018-02-07T10:32:27.905Z,59.1
2018-02-07T10:33:30.083Z,59.1
2018-02-07T10:34:31.965Z,59.3
2018-02-07T10:35:34.966Z,57.9
2018-02-07T10:36:36.982Z,58.8
2018-02-07T10:37:38.982Z,58.4
2018-02-07T10:38:43.279Z,58.2
2018-02-07T10:39:45.274Z,58.9
2018-02-07T10:40:47.244Z,60.5
2018-02-07T10:41:49.293Z,60.4
2018-02-07T10:42:51.846Z,58.7
2018-02-07T10:43:54.350Z,59.3
2018-02-07T10:44:56.684Z,61.0
2018-02-07T10:45:58.642Z,59.6
2018-02-07T10:47:00.452Z,58.7
2018-02-07T10:48:02.458Z,57.5
2018-02-07T10:49:04.400Z,58.7
2018-02-07T10:50:06.271Z,61.1
2018-02-07T10:51:08.475Z,58.8
2018-02-07T10:52:10.948Z,57.6
2018-02-07T10:53:13.841Z,58.7
2018-02-07T10:54:16.344Z,57.4
2018-02-07T10:55:18.527Z,58.1
2018-02-07T10:56:21.214Z,58.6
2018-02-07T10:57:23.024Z,57.3
2018-02-07T10:58:25.715Z,58.9
2018-02-07T10:59:28.030Z,57.5
2018-02-07T11:00:30.432Z,57.6
2018-02-07T11:01:32.671Z,57.2
2018-02-07T11:02:34.888Z,55.4
2018-02-07T11:03:36.612Z,57.1
2018-02-07T11:04:38.502Z,58.6
2018-02-07T11:05:41.000Z,57.5
2018-02-07T11:06:42.842Z,58.2
2018-02-07T11:07:44.628Z,57.2
2018-02-07T11:08:46.428Z,59.1
2018-02-07T11:09:55.052Z,56.6
2018-02-07T11:10:56.863Z,57.1
2018-02-07T11:11:58.706Z,57.4
2018-02-07T11:13:00.525Z,56.3
2018-02-07T11:14:02.410Z,57.1
2018-02-07T11:15:04.208Z,56.2
2018-02-07T11:16:06.928Z,56.4
2018-02-07T11:17:09.445Z,55.6
2018-02-07T11:18:11.278Z,57.9
2018-02-07T11:19:13.070Z,56.0
2018-02-07T11:20:14.856Z,56.0
2018-02-07T11:21:16.646Z,55.5
2018-02-07T11:22:18.425Z,56.3
2018-02-07T11:23:20.336Z,55.9
2018-02-07T11:24:22.096Z,54.7
2018-02-07T11:25:23.970Z,55.8
2018-02-07T11:26:26.447Z,56.8
2018-02-07T11:27:28.240Z,54.2
2018-02-07T11:28:30.038Z,57.1
2018-02-07T11:29:31.819Z,57.8
2018-02-07T11:30:33.579Z,55.7
2018-02-07T11:31:35.640Z,58.7
2018-02-07T11:32:37.815Z,56.1
2018-02-07T11:33:40.095Z,55.8
2018-02-07T11:34:42.312Z,55.5
2018-02-07T11:35:44.307Z,55.9
2018-02-07T11:36:47.193Z,53.9
2018-02-07T11:37:49.306Z,54.4
2018-02-07T11:38:51.516Z,53.4
2018-02-07T11:39:55.082Z,53.4
2018-02-07T11:40:58.101Z,55.8
2018-02-07T11:42:01.110Z,57.1
2018-02-07T11:43:05.295Z,56.0
2018-02-07T11:44:08.597Z,58.5
2018-02-07T11:45:11.876Z,54.0
2018-02-07T11:46:16.889Z,53.0
2018-02-07T11:47:20.618Z,54.8
2018-02-07T11:48:24.744Z,53.7
2018-02-07T11:49:28.657Z,53.0
2018-02-07T11:50:32.176Z,53.5
2018-02-07T11:51:36.420Z,53.8
2018-02-07T11:52:39.427Z,54.4
2018-02-07T11:53:43.094Z,54.7
2018-02-07T11:54:45.845Z,52.0
2018-02-07T11:55:48.543Z,50.6
2018-02-07T11:56:51.697Z,50.0
2018-02-07T11:57:54.216Z,50.7
2018-02-07T11:58:57.240Z,53.0
2018-02-07T12:00:00.697Z,50.8
2018-02-07T12:01:04.140Z,49.7
2018-02-07T12:02:06.998Z,50.1
2018-02-07T12:03:09.908Z,48.5
2018-02-07T12:04:12.394Z,48.9
2018-02-07T12:05:16.191Z,50.7
2018-02-07T12:06:20.827Z,52.8
2018-02-07T12:07:24.001Z,51.4
2018-02-07T12:08:26.930Z,48.1
2018-02-07T12:09:30.217Z,49.6
2018-02-07T12:10:34.522Z,47.6
2018-02-07T12:11:40.081Z,47.4
2018-02-07T12:12:49.123Z,45.4
2018-02-07T12:13:52.616Z,47.2
2018-02-07T12:14:57.894Z,47.0
2018-02-07T12:16:00.607Z,46.3
2018-02-07T12:17:03.626Z,47.6
2018-02-07T12:18:07.237Z,47.2
2018-02-07T12:19:13.214Z,46.8
2018-02-07T12:20:16.704Z,48.2
2018-02-07T12:21:20.398Z,47.0
2018-02-07T12:22:24.054Z,47.5
2018-02-07T12:23:34.615Z,51.2
2018-02-07T12:24:38.048Z,45.8
2018-02-07T12:25:41.205Z,45.0
2018-02-07T12:26:44.479Z,43.9
2018-02-07T12:27:47.208Z,45.0
2018-02-07T12:28:49.968Z,45.9
2018-02-07T12:29:52.594Z,43.6
2018-02-07T12:30:56.913Z,43.4
2018-02-07T12:32:00.287Z,46.7
2018-02-07T12:33:03.075Z,45.2
2018-02-07T12:34:08.229Z,45.2
2018-02-07T12:35:10.961Z,43.1
2018-02-07T12:36:13.568Z,45.6
2018-02-07T12:37:16.537Z,45.6
2018-02-07T12:38:19.427Z,45.2
2018-02-07T12:39:22.778Z,45.7
2018-02-07T12:40:25.199Z,43.6
2018-02-07T12:41:28.918Z,43.2
2018-02-07T12:42:31.594Z,43.2
2018-02-07T12:43:34.104Z,42.8
2018-02-07T12:44:39.320Z,44.1
2018-02-07T12:45:41.569Z,42.8
2018-02-07T12:46:43.791Z,43.4
2018-02-07T12:47:45.945Z,44.4
2018-02-07T12:48:48.877Z,42.9
2018-02-07T12:49:51.156Z,40.9
2018-02-07T12:50:52.997Z,42.2
2018-02-07T12:51:55.480Z,43.8
2018-02-07T12:52:57.471Z,42.5
2018-02-07T12:53:59.411Z,42.1
2018-02-07T12:55:01.208Z,41.2
2018-02-07T12:56:03.299Z,43.1
2018-02-07T12:57:05.808Z,43.5
2018-02-07T12:58:08.122Z,42.8
2018-02-07T12:59:10.383Z,44.6
2018-02-07T13:00:12.648Z,42.7
2018-02-07T13:01:15.352Z,43.4
2018-02-07T13:02:17.964Z,43.6
2018-02-07T13:03:20.602Z,43.2
2018-02-07T13:04:22.507Z,44.8
2018-02-07T13:05:24.330Z,42.7
2018-02-07T13:06:26.574Z,43.8
2018-02-07T13:07:28.369Z,43.8
2018-02-07T13:08:30.360Z,43.4
2018-02-07T13:09:32.416Z,43.0
2018-02-07T13:10:35.666Z,42.3
2018-02-07T13:11:38.315Z,43.4
2018-02-07T13:12:40.793Z,43.5
2018-02-07T13:13:43.301Z,44.3
2018-02-07T13:14:45.739Z,44.3
2018-02-07T13:15:48.232Z,45.1
2018-02-07T13:16:51.533Z,44.8
2018-02-07T13:17:54.207Z,44.1
2018-02-07T13:18:59.973Z,43.9
2018-02-07T13:20:02.431Z,44.9
2018-02-07T13:21:05.025Z,43.1
2018-02-07T13:22:07.602Z,42.5
2018-02-07T13:23:10.480Z,43.1
2018-02-07T13:24:13.093Z,42.4
2018-02-07T13:25:16.249Z,43.9
2018-02-07T13:26:18.509Z,42.9
2018-02-07T13:27:20.677Z,42.3
2018-02-07T13:28:24.125Z,42.4
2018-02-07T13:29:26.733Z,41.5
2018-02-07T13:30:29.568Z,42.4
2018-02-07T13:31:31.744Z,41.0
2018-02-07T13:32:34.042Z,40.2
2018-02-07T13:33:36.727Z,40.9
2018-02-07T13:34:39.128Z,40.0
2018-02-07T13:35:44.189Z,41.1
2018-02-07T13:36:46.554Z,42.0
2018-02-07T13:37:48.879Z,39.8
2018-02-07T13:38:51.114Z,40.0
2018-02-07T13:39:53.477Z,41.1
2018-02-07T13:40:55.727Z,39.8
2018-02-07T13:41:58.208Z,40.2
2018-02-07T13:43:00.503Z,40.9
2018-02-07T13:44:03.005Z,40.0
2018-02-07T13:45:04.864Z,38.6
2018-02-07T13:46:07.668Z,40.0
2018-02-07T13:47:09.587Z,40.5
2018-02-07T13:48:14.357Z,39.2
2018-02-07T13:49:16.205Z,39.8